Brightwood, Massachusetts
Current Conditions -  °F | °C
As of 7:53 AM on Thursday 30 Oct 2014 (Local Time) from KBAF Reporting Station
Overcast Overcast  
Wind Chill: 38°   Ceiling: 7500
Heat Index: 38°   Visibility: 10mi
Dew Point: 37°   Wind: 3mph
Humidity: 97%   Direction: 190°S
Pressure: 29.96"   Gusts: NA
Location:  42.1213°N, 72.6057°W
Report Text: KBAF 301153Z 19003KT 10SM OVC075 03/03 A2996 RMK AO2 SLP149 70014 I6000 T00330028 10033 20000 53012
Loading
Personal Weather Stations






























Interactive Weather Map
Tropical Storm Tracking
New forecast layout! Learn more

10-Day Weather Forecast

Advertisements
Track Severe Weather on mobile